createdAt,value
2022-10-06T00:06:09.973Z,0
2022-10-06T00:15:47.096Z,0
2022-10-06T00:25:23.759Z,0
2022-10-06T00:35:00.638Z,0
2022-10-06T00:44:37.277Z,0
2022-10-06T00:54:14.123Z,0
2022-10-06T01:03:51.047Z,0
2022-10-06T01:13:28.512Z,0
2022-10-06T01:23:05.800Z,0
2022-10-06T01:32:42.726Z,0
2022-10-06T01:42:19.145Z,0
2022-10-06T01:51:56.167Z,0
2022-10-06T02:01:33.359Z,0
2022-10-06T02:11:10.226Z,0
2022-10-06T02:20:47.678Z,0
2022-10-06T02:30:25.364Z,0
2022-10-06T02:40:02.254Z,0
2022-10-06T02:49:38.881Z,0
2022-10-06T02:59:16.021Z,0
2022-10-06T03:18:29.226Z,0
2022-10-06T03:28:06.554Z,0
2022-10-06T03:37:44.404Z,0
2022-10-06T03:57:00.066Z,0
2022-10-06T04:16:14.948Z,0
2022-10-06T04:25:55.926Z,0
2022-10-06T04:35:31.105Z,0
2022-10-06T04:45:09.013Z,0
2022-10-06T04:54:46.356Z,0
2022-10-06T05:04:22.999Z,1.67
2022-10-06T05:13:58.756Z,6.67
2022-10-06T05:23:35.655Z,13.33
2022-10-06T05:33:12.483Z,29.17
2022-10-06T05:42:49.374Z,51.67
2022-10-06T05:52:26.837Z,88.33
2022-10-06T06:02:04.169Z,183.33
2022-10-06T06:11:41.222Z,310.83
2022-10-06T06:21:18.523Z,515
2022-10-06T06:30:55.811Z,444.17
2022-10-06T06:40:33.043Z,774.17
2022-10-06T06:50:10.575Z,610
2022-10-06T06:59:46.959Z,690
2022-10-06T07:09:23.150Z,688.33
2022-10-06T07:18:59.511Z,809.17
2022-10-06T07:28:36.864Z,843.33
2022-10-06T07:38:14.752Z,867.5
2022-10-06T07:47:52.395Z,890.83
2022-10-06T08:07:06.624Z,983.33
2022-10-06T08:26:22.018Z,1155.83
2022-10-06T08:35:59.660Z,1138.33
2022-10-06T08:45:38.785Z,1200
2022-10-06T08:55:15.073Z,1204.17
2022-10-06T09:04:52.617Z,1103.33
2022-10-06T09:24:07.564Z,1476.67
2022-10-06T09:33:45.946Z,2147.5
2022-10-06T09:43:24.573Z,2051.67
2022-10-06T09:53:01.663Z,1930.83
2022-10-06T10:02:40.049Z,3808.33
2022-10-06T10:12:17.542Z,2533.33
2022-10-06T10:21:55.589Z,15520
2022-10-06T10:32:15.979Z,54612.5
2022-10-06T10:42:04.071Z,54612.5
2022-10-06T10:51:46.887Z,54612.5
2022-10-06T11:01:27.659Z,54612.5
2022-10-06T11:11:08.310Z,54612.5
2022-10-06T11:20:47.391Z,54612.5
2022-10-06T11:30:28.607Z,54612.5
2022-10-06T11:40:07.727Z,54612.5
2022-10-06T11:49:46.242Z,54612.5
2022-10-06T11:59:25.365Z,54612.5
2022-10-06T12:09:02.317Z,54612.5
2022-10-06T12:28:27.036Z,54612.5
2022-10-06T12:57:26.313Z,54612.5
2022-10-06T13:07:07.661Z,52887.5
2022-10-06T13:16:31.746Z,39942.5
2022-10-06T13:26:06.539Z,31647.5
2022-10-06T13:35:45.392Z,44799.16
2022-10-06T13:45:28.097Z,44679.16
2022-10-06T13:55:00.041Z,36213.33
2022-10-06T14:04:46.989Z,44423.33
2022-10-06T14:14:24.118Z,40695
2022-10-06T14:33:49.228Z,39639.16
2022-10-06T14:43:28.803Z,21738.33
2022-10-06T14:52:59.990Z,25458.33
2022-10-06T15:02:32.869Z,21430
2022-10-06T15:11:59.570Z,6483.33
2022-10-06T15:21:27.281Z,2843.33
2022-10-06T15:30:53.863Z,1407.5
2022-10-06T15:40:25.949Z,1205.83
2022-10-06T15:50:00.074Z,950.83
2022-10-06T16:09:10.263Z,615
2022-10-06T16:28:21.169Z,288.33
2022-10-06T16:47:33.151Z,60
2022-10-06T16:57:09.094Z,15.83
2022-10-06T17:06:45.982Z,2.5
2022-10-06T17:16:21.617Z,0.83
2022-10-06T17:25:57.605Z,0
2022-10-06T17:35:33.802Z,0
2022-10-06T17:45:10.371Z,0
2022-10-06T17:54:47.052Z,0
2022-10-06T18:04:23.383Z,0
2022-10-06T18:13:59.908Z,0
2022-10-06T18:23:36.141Z,0
2022-10-06T18:42:49.177Z,0
2022-10-06T18:52:25.728Z,0
2022-10-06T19:02:01.998Z,0
2022-10-06T19:11:38.345Z,0
2022-10-06T19:21:15.088Z,0
2022-10-06T19:30:51.340Z,0
2022-10-06T19:40:27.953Z,0
2022-10-06T19:50:11.558Z,0
2022-10-06T19:59:41.922Z,0
2022-10-06T20:09:18.528Z,0.83
2022-10-06T20:18:55.565Z,0
2022-10-06T20:28:33.440Z,0
2022-10-06T20:38:08.449Z,0
2022-10-06T20:47:45.349Z,0
2022-10-06T20:57:21.607Z,0
2022-10-06T21:06:58.356Z,0
2022-10-06T21:16:34.579Z,0
2022-10-06T21:26:11.344Z,0
2022-10-06T21:35:48.253Z,0
2022-10-06T21:45:27.532Z,0
2022-10-06T21:55:01.732Z,0
2022-10-06T22:04:38.583Z,0
2022-10-06T22:14:15.689Z,0
2022-10-06T22:23:52.066Z,0
2022-10-06T22:33:28.762Z,0
2022-10-06T22:43:05.516Z,0
2022-10-06T22:52:42.283Z,0.83
2022-10-06T23:02:18.545Z,0
2022-10-06T23:11:56.211Z,0
2022-10-06T23:21:32.743Z,0
2022-10-06T23:31:10.148Z,0
2022-10-06T23:40:46.995Z,0
2022-10-06T23:50:23.483Z,0
